WetterOnline ( https://www.wetteronline.de )

Wetter aktuell Cuxhaven

Aktuelles Wetter: Nordholz (23m)

6-stündlich | Neueste Meldungen
Ortszeit Temperatur Wetter
Di, 04.10. 14:00 16.6° C leicht bewölkt
Di, 04.10. 8:00 10.1° C wolkig
Di, 04.10. 2:00 11.4° C leicht bewölkt
Mo, 03.10. 20:00 13.0° C leicht bewölkt
Mo, 03.10. 14:00 15.8° C bewölkt
Mo, 03.10. 8:00 12.0° C leichte Schauer
Mo, 03.10. 2:00 12.5° C wolkig
So, 02.10. 20:00 13.1° C fast wolkenlos
Ortszeit Temperatur Wetter
Di, 04.10. 16:00 17.6° C leicht bewölkt
Di, 04.10. 15:00 17.3° C leicht bewölkt
Di, 04.10. 14:00 16.6° C leicht bewölkt
Di, 04.10. 13:00 16.7° C leicht bewölkt
Di, 04.10. 12:00 15.4° C leicht bewölkt
Di, 04.10. 11:00 14.1° C leicht bewölkt
Di, 04.10. 10:00 13.0° C leicht bewölkt
Ortszeit Relative Feuchte Sichtweite
Di, 04.10. 14:00 62% 40 km
Di, 04.10. 8:00 95% 12 km
Di, 04.10. 2:00 94% 25 km
Mo, 03.10. 20:00 88% 30 km
Mo, 03.10. 14:00 74% 25 km
Mo, 03.10. 8:00 92% 20 km
Mo, 03.10. 2:00 81% 30 km
So, 02.10. 20:00 79% 20 km
Ortszeit Relative Feuchte Sichtweite
Di, 04.10. 16:00 58% 40 km
Di, 04.10. 15:00 59% 40 km
Di, 04.10. 14:00 62% 40 km
Di, 04.10. 13:00 65% 30 km
Di, 04.10. 12:00 72% 25 km
Di, 04.10. 11:00 77% 20 km
Di, 04.10. 10:00 83% 15 km
Ortszeit Niederschlagsmenge Niederschlagsart
Di, 04.10. 14:00 keine Meldung -
Di, 04.10. 8:00 0.0 l/m2 in 12 Std. -
Di, 04.10. 2:00 keine Meldung -
Mo, 03.10. 20:00 0.1 l/m2 in 12 Std. -
Mo, 03.10. 14:00 keine Meldung -
Mo, 03.10. 8:00 3 l/m2 in 12 Std. Schauer
Mo, 03.10. 2:00 keine Meldung -
So, 02.10. 20:00 5 l/m2 in 12 Std. -
Ortszeit Niederschlagsmenge Niederschlagsart
Di, 04.10. 16:00 keine Meldung -
Di, 04.10. 15:00 keine Meldung -
Di, 04.10. 14:00 keine Meldung -
Di, 04.10. 13:00 keine Meldung -
Di, 04.10. 12:00 keine Meldung -
Di, 04.10. 11:00 keine Meldung -
Di, 04.10. 10:00 keine Meldung -
Ortszeit Stärke Spitze Richtung
km/h Bft. km/h Grad Sektor
Di, 04.10. 14:00 25 4 - 220° SW
Di, 04.10. 8:00 11 2 - 210° SW
Di, 04.10. 2:00 14 3 - 220° SW
Mo, 03.10. 20:00 14 3 47 280° W
Mo, 03.10. 14:00 29 5 47 300° NW
Mo, 03.10. 8:00 22 4 - 310° NW
Mo, 03.10. 2:00 22 4 - 330° NW
So, 02.10. 20:00 22 4 - 310° NW
Ortszeit Stärke Spitze Richtung
km/h Bft. km/h Grad Sektor
Di, 04.10. 16:00 18 3 - 220° SW
Di, 04.10. 15:00 22 4 - 210° SW
Di, 04.10. 14:00 25 4 - 220° SW
Di, 04.10. 13:00 14 3 - 220° SW
Di, 04.10. 12:00 14 3 - 220° SW
Di, 04.10. 11:00 18 3 - 210° SW
Di, 04.10. 10:00 14 3 - 210° SW
Ortszeit Untergrenze Bedeckung Gattung
total tief tief mittel hoch
Di, 04.10. 14:00 750 m 4/8 1/8 Cu Ac Ci
Di, 04.10. 8:00 1200 m 7/8 2/8 Sc Ac Ci
Di, 04.10. 2:00 3300 m 7/8 7/8 - Ac -
Mo, 03.10. 20:00 6300 m 7/8 7/8 - - Cs
Mo, 03.10. 14:00 600 m 7/8 7/8 Cu - -
Mo, 03.10. 8:00 600 m 5/8 5/8 Cu - -
Mo, 03.10. 2:00 600 m 5/8 5/8 Cu - -
So, 02.10. 20:00 600 m 2/8 2/8 Cu - -
Ortszeit Bedeckungsgrad in Achtel und Wolkenuntergrenze
Di, 04.10. 16:00 1(900m) 4(10500m)
Di, 04.10. 15:00 1(810m) 3(9000m)
Di, 04.10. 14:00 1(750m) 4(9000m)
Di, 04.10. 13:00 1(630m) 5(10500m)
Di, 04.10. 12:00 1(600m) 5(9000m)
Di, 04.10. 11:00 4(4800m) 5(6000m)
Di, 04.10. 10:00 4(3600m) 5(9000m)
Ortszeit Luftdruck NN (hPa) Tendenz (hPa in 3 Std.)
Di, 04.10. 14:00 1019 - 1,1
Di, 04.10. 8:00 1020 - 0,9
Di, 04.10. 2:00 1022 - 1,2
Mo, 03.10. 20:00 1024 - 0,5
Mo, 03.10. 14:00 1024 0,0
Mo, 03.10. 8:00 1023 + 1,0
Mo, 03.10. 2:00 1021 + 1,5
So, 02.10. 20:00 1018 + 2,2
Ortszeit Luftdruck NN (hPa) Tendenz (hPa in 3 Std.)
Di, 04.10. 16:00 1018 - 1,6
Di, 04.10. 15:00 1018 - 1,3
Di, 04.10. 14:00 1019 - 1,1
Di, 04.10. 13:00 1020 - 0,6
Di, 04.10. 12:00 1020 - 0,5
Di, 04.10. 11:00 1020 - 0,1
Di, 04.10. 10:00 1020 - 0,4
Ortszeit Schneehöhe (cm)
Di, 04.10. 14:00 -
Di, 04.10. 8:00 0
Di, 04.10. 2:00 -
Mo, 03.10. 20:00 0
Mo, 03.10. 14:00 -
Mo, 03.10. 8:00 0
Mo, 03.10. 2:00 -
So, 02.10. 20:00 0
Ortszeit Schneehöhe (cm)
Di, 04.10. 16:00 -
Di, 04.10. 15:00 -
Di, 04.10. 14:00 -
Di, 04.10. 13:00 -
Di, 04.10. 12:00 -
Di, 04.10. 11:00 -
Di, 04.10. 10:00 -
Link zu dieser Seite / Seite empfehlen

Das Wetter in ...